createdAt,value
2022-08-05T00:02:22.807Z,49.70
2022-08-05T00:04:55.123Z,49.90
2022-08-05T00:07:58.807Z,49.80
2022-08-05T00:10:10.452Z,50.00
2022-08-05T00:12:55.945Z,49.90
2022-08-05T00:15:55.669Z,49.80
2022-08-05T00:18:21.546Z,50.00
2022-08-05T00:20:50.002Z,50.20
2022-08-05T00:23:17.163Z,50.20
2022-08-05T00:25:46.043Z,49.80
2022-08-05T00:28:13.509Z,49.80
2022-08-05T00:30:41.223Z,49.90
2022-08-05T00:33:15.391Z,50.00
2022-08-05T00:36:16.370Z,49.80
2022-08-05T00:38:45.268Z,49.80
2022-08-05T00:41:13.028Z,50.00
2022-08-05T00:43:49.682Z,50.20
2022-08-05T00:46:16.965Z,50.10
2022-08-05T00:49:04.518Z,49.90
2022-08-05T00:51:51.608Z,50.00
2022-08-05T00:54:19.083Z,50.10
2022-08-05T00:56:51.693Z,50.50
2022-08-05T00:59:18.779Z,50.60
2022-08-05T01:01:48.479Z,50.50
2022-08-05T01:04:16.043Z,50.50
2022-08-05T01:06:49.085Z,50.50
2022-08-05T01:09:19.851Z,50.70
2022-08-05T01:11:50.595Z,50.80
2022-08-05T01:14:28.501Z,50.80
2022-08-05T01:17:40.292Z,50.80
2022-08-05T01:20:27.065Z,50.80
2022-08-05T01:22:57.674Z,50.80
2022-08-05T01:26:00.634Z,50.80
2022-08-05T01:28:30.410Z,50.80
2022-08-05T01:31:13.990Z,50.80
2022-08-05T01:34:01.534Z,50.90
2022-08-05T01:36:36.244Z,50.80
2022-08-05T01:39:11.834Z,50.70
2022-08-05T01:41:40.914Z,50.70
2022-08-05T01:44:13.048Z,50.60
2022-08-05T01:46:46.414Z,50.70
2022-08-05T01:49:22.841Z,50.70
2022-08-05T01:51:52.115Z,50.70
2022-08-05T01:54:23.620Z,50.50
2022-08-05T01:58:12.462Z,51.50
2022-08-05T01:59:41.988Z,50.40
2022-08-05T02:02:16.050Z,50.80
2022-08-05T02:04:46.305Z,51.20
2022-08-05T02:07:22.216Z,51.40
2022-08-05T02:09:50.872Z,51.60
2022-08-05T02:12:37.362Z,51.70
2022-08-05T02:15:12.234Z,51.50
2022-08-05T02:18:28.451Z,51.40
2022-08-05T02:21:19.619Z,51.70
2022-08-05T02:23:53.862Z,52.00
2022-08-05T02:26:39.584Z,51.80
2022-08-05T02:29:58.110Z,51.60
2022-08-05T02:32:23.896Z,51.50
2022-08-05T02:34:58.853Z,51.40
2022-08-05T02:37:33.311Z,51.20
2022-08-05T02:40:03.387Z,51.50
2022-08-05T02:42:35.986Z,51.60
2022-08-05T02:45:03.863Z,51.80
2022-08-05T02:48:06.300Z,52.00
2022-08-05T02:50:22.100Z,52.00
2022-08-05T02:52:50.920Z,52.30
2022-08-05T02:55:54.608Z,52.30
2022-08-05T02:58:09.707Z,52.50
2022-08-05T03:00:39.885Z,52.50
2022-08-05T03:03:10.379Z,52.60
2022-08-05T03:06:55.331Z,52.80
2022-08-05T03:08:27.080Z,52.90
2022-08-05T03:11:53.307Z,53.40
2022-08-05T03:13:51.465Z,53.70
2022-08-05T03:16:29.936Z,53.70
2022-08-05T03:18:59.082Z,54.00
2022-08-05T03:21:28.770Z,53.90
2022-08-05T03:24:00.694Z,54.10
2022-08-05T03:26:31.829Z,54.20
2022-08-05T03:28:59.640Z,54.40
2022-08-05T03:31:57.335Z,54.50
2022-08-05T03:34:13.770Z,54.70
2022-08-05T03:36:41.153Z,54.40
2022-08-05T03:39:13.194Z,54.30
2022-08-05T03:41:47.263Z,54.30
2022-08-05T03:44:19.661Z,54.20
2022-08-05T03:46:47.023Z,54.30
2022-08-05T03:49:15.546Z,54.20
2022-08-05T03:52:39.132Z,54.10
2022-08-05T03:55:53.175Z,54.40
2022-08-05T03:57:47.110Z,54.50
2022-08-05T04:00:16.678Z,54.60
2022-08-05T04:02:57.737Z,54.70
2022-08-05T04:05:34.083Z,55.00
2022-08-05T04:08:14.647Z,54.90
2022-08-05T04:10:55.437Z,55.10
2022-08-05T04:13:49.367Z,55.10
2022-08-05T04:16:14.392Z,54.80
2022-08-05T04:18:41.390Z,54.60
2022-08-05T04:21:10.955Z,54.40
2022-08-05T04:24:05.759Z,54.40
2022-08-05T04:26:26.160Z,54.70
2022-08-05T04:29:00.658Z,54.80
2022-08-05T04:31:38.753Z,55.00
2022-08-05T04:34:29.591Z,55.00
2022-08-05T04:36:53.418Z,55.20
2022-08-05T04:39:20.902Z,55.30
2022-08-05T04:41:51.046Z,55.50
2022-08-05T04:44:21.265Z,55.30
2022-08-05T04:46:57.685Z,55.40
2022-08-05T04:49:39.028Z,55.30
2022-08-05T04:52:12.882Z,55.20
2022-08-05T04:54:39.778Z,55.40
2022-08-05T04:57:06.679Z,55.50
2022-08-05T04:59:38.941Z,55.50
2022-08-05T05:02:37.255Z,55.50
2022-08-05T05:05:02.334Z,55.40
2022-08-05T05:07:32.291Z,55.20
2022-08-05T05:10:04.294Z,55.50
2022-08-05T05:12:31.477Z,55.30
2022-08-05T05:14:58.505Z,55.20
2022-08-05T05:17:56.912Z,55.50
2022-08-05T05:20:13.761Z,55.30
2022-08-05T05:22:43.981Z,55.00
2022-08-05T05:25:15.958Z,54.60
2022-08-05T05:27:53.526Z,55.00
2022-08-05T05:30:29.602Z,54.40
2022-08-05T05:33:00.454Z,54.70
2022-08-05T05:35:37.609Z,54.10
2022-08-05T05:38:09.494Z,54.00
2022-08-05T05:40:48.364Z,54.10
2022-08-05T05:43:54.370Z,54.20
2022-08-05T05:46:16.139Z,54.20
2022-08-05T05:48:48.297Z,54.00
2022-08-05T05:51:20.102Z,53.30
2022-08-05T05:53:57.392Z,53.20
2022-08-05T05:56:31.734Z,52.70
2022-08-05T05:59:03.121Z,52.60
2022-08-05T06:01:37.945Z,52.70
2022-08-05T06:04:14.550Z,53.70
2022-08-05T06:06:46.684Z,52.60
2022-08-05T06:09:17.495Z,52.80
2022-08-05T06:12:01.386Z,52.60
2022-08-05T06:14:34.845Z,52.60
2022-08-05T06:17:22.045Z,52.50
2022-08-05T06:19:56.988Z,52.50
2022-08-05T06:22:33.365Z,52.60
2022-08-05T06:25:24.451Z,52.00
2022-08-05T06:28:12.249Z,51.80
2022-08-05T06:30:35.854Z,51.80
2022-08-05T06:33:02.802Z,53.10
2022-08-05T06:36:03.508Z,52.40
2022-08-05T06:38:16.530Z,52.10
2022-08-05T06:40:44.466Z,52.20
2022-08-05T06:43:58.296Z,51.70
2022-08-05T06:46:06.539Z,51.70
2022-08-05T06:48:52.701Z,51.50
2022-08-05T06:51:29.584Z,51.50
2022-08-05T06:54:02.245Z,51.00
2022-08-05T06:56:30.022Z,50.80
2022-08-05T06:59:00.202Z,50.80
2022-08-05T07:01:32.457Z,50.20
2022-08-05T07:04:02.349Z,49.70
2022-08-05T07:06:29.488Z,49.90
2022-08-05T07:08:56.425Z,49.70
2022-08-05T07:11:28.636Z,49.10
2022-08-05T07:14:20.298Z,48.40
2022-08-05T07:18:02.049Z,49.10
2022-08-05T07:20:31.380Z,48.80
2022-08-05T07:22:34.989Z,48.50
2022-08-05T07:25:22.480Z,48.40
2022-08-05T07:27:58.719Z,47.50
2022-08-05T07:30:32.398Z,47.90
2022-08-05T07:33:05.542Z,47.20
2022-08-05T07:36:04.658Z,46.60
2022-08-05T07:38:34.055Z,46.80
2022-08-05T07:42:07.277Z,45.90
2022-08-05T07:43:58.161Z,45.50
2022-08-05T07:46:28.672Z,44.50
2022-08-05T07:49:03.125Z,44.90
2022-08-05T07:51:41.158Z,45.50
2022-08-05T07:54:26.265Z,44.10
2022-08-05T07:57:02.057Z,43.60
2022-08-05T07:59:43.200Z,44.00
2022-08-05T08:02:15.860Z,43.90
2022-08-05T08:04:45.492Z,44.10
2022-08-05T08:07:13.598Z,42.10
2022-08-05T08:09:40.507Z,42.10
2022-08-05T08:12:35.259Z,42.40
2022-08-05T08:14:54.916Z,42.00
2022-08-05T08:17:21.948Z,43.20
2022-08-05T08:20:43.977Z,40.80
2022-08-05T08:22:35.958Z,40.50
2022-08-05T08:25:03.933Z,41.10
2022-08-05T08:27:45.045Z,40.60
2022-08-05T08:30:30.137Z,40.30
2022-08-05T08:33:08.772Z,39.90
2022-08-05T08:35:52.751Z,39.40
2022-08-05T08:38:32.217Z,39.00
2022-08-05T08:41:09.903Z,40.00
2022-08-05T08:45:22.939Z,40.50
2022-08-05T08:46:31.128Z,39.10
2022-08-05T08:49:17.372Z,38.80
2022-08-05T08:52:13.282Z,38.30
2022-08-05T08:54:43.181Z,38.80
2022-08-05T08:57:13.442Z,39.80
2022-08-05T08:59:42.065Z,39.60
2022-08-05T09:02:16.679Z,39.00
2022-08-05T09:04:58.435Z,39.50
2022-08-05T09:07:39.716Z,39.10
2022-08-05T09:10:20.160Z,39.50
2022-08-05T09:12:51.108Z,39.10
2022-08-05T09:15:20.470Z,40.20
2022-08-05T09:17:49.876Z,38.80
2022-08-05T09:20:36.179Z,38.70
2022-08-05T09:23:19.612Z,38.30
2022-08-05T09:26:06.110Z,38.30
2022-08-05T09:28:37.999Z,38.20
2022-08-05T09:31:43.863Z,39.00
2022-08-05T09:34:01.062Z,38.20
2022-08-05T09:36:54.402Z,37.40
2022-08-05T09:39:41.200Z,37.30
2022-08-05T09:42:17.323Z,36.20
2022-08-05T09:44:56.790Z,36.70
2022-08-05T09:47:35.221Z,36.50
2022-08-05T09:50:37.341Z,35.70
2022-08-05T09:53:06.117Z,36.00
2022-08-05T09:55:57.524Z,36.10
2022-08-05T09:58:24.501Z,35.40
2022-08-05T10:01:02.189Z,35.80
2022-08-05T10:03:58.606Z,35.40
2022-08-05T10:06:31.032Z,35.10
2022-08-05T10:09:27.606Z,35.20
2022-08-05T10:12:30.199Z,35.00
2022-08-05T10:14:54.338Z,34.80
2022-08-05T10:17:37.177Z,33.90
2022-08-05T10:20:09.907Z,34.50
2022-08-05T10:22:42.824Z,33.60
2022-08-05T10:25:15.866Z,34.50
2022-08-05T10:28:13.527Z,33.60
2022-08-05T10:31:20.213Z,33.70
2022-08-05T10:33:17.866Z,32.40
2022-08-05T10:35:58.961Z,33.50
2022-08-05T10:38:28.753Z,32.20
2022-08-05T10:41:04.988Z,33.10
2022-08-05T10:43:42.595Z,32.80
2022-08-05T10:46:14.067Z,32.20
2022-08-05T10:48:57.276Z,32.60
2022-08-05T10:51:28.724Z,32.20
2022-08-05T10:53:58.568Z,31.50
2022-08-05T10:56:36.477Z,31.00
2022-08-05T10:59:12.466Z,31.40
2022-08-05T11:02:37.960Z,31.60
2022-08-05T11:05:10.636Z,31.30
2022-08-05T11:08:03.278Z,30.20
2022-08-05T11:10:38.349Z,30.80
2022-08-05T11:13:54.847Z,32.00
2022-08-05T11:16:33.944Z,32.30
2022-08-05T11:20:17.484Z,32.10
2022-08-05T11:22:44.231Z,30.80
2022-08-05T11:26:04.181Z,31.80
2022-08-05T11:28:24.394Z,31.90
2022-08-05T11:31:06.090Z,31.90
2022-08-05T11:33:46.247Z,30.60
2022-08-05T11:36:16.377Z,29.90
2022-08-05T11:39:02.296Z,29.70
2022-08-05T11:41:56.155Z,30.90
2022-08-05T11:44:40.795Z,30.60
2022-08-05T11:47:12.034Z,30.80
2022-08-05T11:49:43.472Z,30.80
2022-08-05T11:52:30.982Z,30.70
2022-08-05T11:54:59.550Z,30.80
2022-08-05T11:58:08.639Z,30.60
2022-08-05T12:00:31.713Z,31.20
2022-08-05T12:03:14.819Z,30.30
2022-08-05T12:05:43.509Z,31.60
2022-08-05T12:08:11.662Z,31.10
2022-08-05T12:10:46.071Z,30.60
2022-08-05T12:13:27.808Z,30.30
2022-08-05T12:16:14.207Z,30.20
2022-08-05T12:18:42.802Z,30.70
2022-08-05T12:21:23.621Z,30.20
2022-08-05T12:23:57.431Z,29.90
2022-08-05T12:26:36.292Z,30.40
2022-08-05T12:29:16.388Z,30.60
2022-08-05T12:31:54.309Z,31.20
2022-08-05T12:34:31.392Z,29.90
2022-08-05T12:37:10.596Z,29.10
2022-08-05T12:39:39.633Z,28.30
2022-08-05T12:42:16.780Z,28.50
2022-08-05T12:44:46.049Z,29.30
2022-08-05T12:47:26.226Z,29.20
2022-08-05T12:50:04.464Z,28.70
2022-08-05T12:52:39.033Z,29.20
2022-08-05T12:55:25.669Z,29.40
2022-08-05T12:58:49.250Z,29.60
2022-08-05T13:02:00.487Z,30.50
2022-08-05T13:03:32.629Z,30.00
2022-08-05T13:06:06.564Z,30.30
2022-08-05T13:08:38.586Z,30.20
2022-08-05T13:11:07.877Z,30.50
2022-08-05T13:14:06.171Z,30.10
2022-08-05T13:16:28.044Z,30.30
2022-08-05T13:18:58.378Z,30.50
2022-08-05T13:21:28.238Z,30.10
2022-08-05T13:24:05.848Z,29.40
2022-08-05T13:26:35.850Z,29.10
2022-08-05T13:29:03.136Z,28.90
2022-08-05T13:32:03.079Z,28.70
2022-08-05T13:34:21.030Z,28.80
2022-08-05T13:36:55.943Z,29.70
2022-08-05T13:40:14.362Z,29.60
2022-08-05T13:42:14.318Z,29.80
2022-08-05T13:44:45.288Z,29.80
2022-08-05T13:47:35.971Z,30.00
2022-08-05T13:50:06.294Z,30.10
2022-08-05T13:52:36.718Z,30.00
2022-08-05T13:55:07.603Z,30.30
2022-08-05T13:57:50.851Z,30.70
2022-08-05T14:00:19.727Z,30.60
2022-08-05T14:02:54.812Z,30.70
2022-08-05T14:05:48.483Z,30.50
2022-08-05T14:08:11.171Z,31.30
2022-08-05T14:10:48.904Z,31.30
2022-08-05T14:13:16.281Z,31.50
2022-08-05T14:16:07.798Z,31.60
2022-08-05T14:18:30.132Z,31.70
2022-08-05T14:20:56.945Z,32.20
2022-08-05T14:23:28.815Z,31.70
2022-08-05T14:26:04.975Z,32.50
2022-08-05T14:28:33.337Z,31.80
2022-08-05T14:31:01.716Z,31.80
2022-08-05T14:33:56.445Z,31.70
2022-08-05T14:36:21.235Z,32.00
2022-08-05T14:38:49.024Z,32.80
2022-08-05T14:41:17.670Z,34.00
2022-08-05T14:43:59.215Z,33.00
2022-08-05T14:46:31.450Z,33.00
2022-08-05T14:49:06.347Z,32.40
2022-08-05T14:51:37.415Z,32.20
2022-08-05T14:54:26.256Z,32.10
2022-08-05T14:56:54.631Z,31.90
2022-08-05T14:59:22.241Z,32.10
2022-08-05T15:01:50.216Z,32.40
2022-08-05T15:04:20.504Z,31.10
2022-08-05T15:06:50.633Z,31.20
2022-08-05T15:09:52.509Z,30.80
2022-08-05T15:12:09.487Z,31.50
2022-08-05T15:14:48.130Z,31.70
2022-08-05T15:17:47.053Z,32.00
2022-08-05T15:20:05.171Z,32.40
2022-08-05T15:22:32.857Z,32.10
2022-08-05T15:25:00.594Z,32.70
2022-08-05T15:27:38.905Z,32.90
2022-08-05T15:30:11.044Z,32.40
2022-08-05T15:32:41.270Z,30.80
2022-08-05T15:35:10.663Z,31.10
2022-08-05T15:38:32.952Z,31.70
2022-08-05T15:41:00.647Z,30.40
2022-08-05T15:43:20.553Z,30.80
2022-08-05T15:45:48.167Z,30.10
2022-08-05T15:48:28.390Z,29.50
2022-08-05T15:50:56.455Z,29.10
2022-08-05T15:53:26.374Z,28.90
2022-08-05T15:56:04.067Z,28.50
2022-08-05T15:58:35.765Z,28.40
2022-08-05T16:01:16.733Z,28.40
2022-08-05T16:03:48.587Z,28.30
2022-08-05T16:06:19.899Z,28.40
2022-08-05T16:08:50.306Z,28.90
2022-08-05T16:11:18.534Z,28.30
2022-08-05T16:13:48.486Z,28.00
2022-08-05T16:16:21.275Z,27.90
2022-08-05T16:18:53.055Z,28.00
2022-08-05T16:21:20.754Z,28.50
2022-08-05T16:24:12.621Z,28.20
2022-08-05T16:27:00.637Z,27.90
2022-08-05T16:29:28.819Z,28.30
2022-08-05T16:32:01.243Z,28.60
2022-08-05T16:34:31.462Z,28.70
2022-08-05T16:36:58.910Z,28.60
2022-08-05T16:40:06.627Z,28.80
2022-08-05T16:42:17.590Z,28.60
2022-08-05T16:44:54.236Z,29.30
2022-08-05T16:47:28.812Z,29.10
2022-08-05T16:50:05.266Z,29.00
2022-08-05T16:52:33.467Z,28.60
2022-08-05T16:55:00.613Z,28.30
2022-08-05T16:57:53.658Z,27.90
2022-08-05T17:00:34.040Z,27.90
2022-08-05T17:03:02.919Z,28.10
2022-08-05T17:05:30.809Z,27.50
2022-08-05T17:07:58.123Z,27.90
2022-08-05T17:10:26.482Z,27.00
2022-08-05T17:12:57.929Z,27.00
2022-08-05T17:15:29.335Z,26.50
2022-08-05T17:18:14.178Z,26.80
2022-08-05T17:20:42.523Z,26.00
2022-08-05T17:23:11.111Z,25.90
2022-08-05T17:26:00.069Z,26.30
2022-08-05T17:28:29.281Z,26.20
2022-08-05T17:30:56.799Z,25.80
2022-08-05T17:33:25.455Z,26.10
2022-08-05T17:36:07.997Z,26.60
2022-08-05T17:38:37.412Z,26.70
2022-08-05T17:41:07.388Z,27.00
2022-08-05T17:43:53.333Z,27.00
2022-08-05T17:46:21.269Z,27.00
2022-08-05T17:48:48.288Z,27.20
2022-08-05T17:51:21.914Z,27.30
2022-08-05T17:53:50.790Z,27.50
2022-08-05T17:56:22.821Z,28.00
2022-08-05T17:58:51.186Z,28.30
2022-08-05T18:01:19.593Z,28.70
2022-08-05T18:03:58.529Z,29.00
2022-08-05T18:06:31.125Z,29.10
2022-08-05T18:08:58.743Z,29.40
2022-08-05T18:11:32.500Z,29.60
2022-08-05T18:14:07.191Z,29.90
2022-08-05T18:16:35.738Z,30.00
2022-08-05T18:19:18.578Z,30.30
2022-08-05T18:22:09.670Z,30.20
2022-08-05T18:24:37.895Z,30.40
2022-08-05T18:27:12.975Z,30.60
2022-08-05T18:29:48.199Z,30.80
2022-08-05T18:32:20.789Z,31.20
2022-08-05T18:34:55.593Z,32.70
2022-08-05T18:37:34.639Z,31.90
2022-08-05T18:40:29.985Z,32.40
2022-08-05T18:42:56.629Z,32.70
2022-08-05T18:45:24.841Z,32.90
2022-08-05T18:47:56.402Z,33.10
2022-08-05T18:50:46.511Z,33.40
2022-08-05T18:53:22.132Z,33.40
2022-08-05T18:55:49.852Z,33.80
2022-08-05T18:58:18.448Z,34.30
2022-08-05T19:00:53.995Z,34.30
2022-08-05T19:03:20.951Z,34.60
2022-08-05T19:06:18.476Z,34.80
2022-08-05T19:08:49.287Z,34.60
2022-08-05T19:11:16.207Z,34.40
2022-08-05T19:14:00.990Z,34.50
2022-08-05T19:16:34.424Z,34.70
2022-08-05T19:19:14.111Z,34.60
2022-08-05T19:21:41.573Z,34.80
2022-08-05T19:24:12.645Z,34.60
2022-08-05T19:26:54.323Z,34.90
2022-08-05T19:29:22.681Z,34.70
2022-08-05T19:31:51.196Z,34.60
2022-08-05T19:34:21.029Z,34.70
2022-08-05T19:36:48.818Z,34.60
2022-08-05T19:39:18.490Z,34.70
2022-08-05T19:42:06.226Z,34.60
2022-08-05T19:44:40.231Z,34.60
2022-08-05T19:47:16.048Z,34.30
2022-08-05T19:49:44.460Z,34.60
2022-08-05T19:52:31.566Z,34.80
2022-08-05T19:55:07.046Z,34.80
2022-08-05T19:58:19.515Z,34.90
2022-08-05T20:00:35.598Z,34.50
2022-08-05T20:03:08.467Z,34.50
2022-08-05T20:05:43.376Z,34.40
2022-08-05T20:08:17.737Z,34.10
2022-08-05T20:10:44.611Z,34.10
2022-08-05T20:13:16.651Z,34.00
2022-08-05T20:15:52.093Z,34.10
2022-08-05T20:18:32.599Z,34.00
2022-08-05T20:21:01.031Z,33.70
2022-08-05T20:23:40.502Z,33.00
2022-08-05T20:26:17.502Z,32.90
2022-08-05T20:28:48.042Z,33.00
2022-08-05T20:31:16.494Z,32.90
2022-08-05T20:33:44.707Z,32.50
2022-08-05T20:36:12.271Z,32.50
2022-08-05T20:38:53.519Z,32.50
2022-08-05T20:41:26.957Z,32.50
2022-08-05T20:44:00.088Z,32.10
2022-08-05T20:46:33.550Z,32.00
2022-08-05T20:49:00.406Z,32.10
2022-08-05T20:51:29.781Z,32.00
2022-08-05T20:54:01.271Z,32.60
2022-08-05T20:56:32.957Z,32.30
2022-08-05T20:59:11.369Z,32.40
2022-08-05T21:01:41.411Z,31.90
2022-08-05T21:04:10.637Z,31.80
2022-08-05T21:06:38.380Z,32.00
2022-08-05T21:09:14.234Z,31.80
2022-08-05T21:12:07.444Z,31.80
2022-08-05T21:14:29.268Z,31.80
2022-08-05T21:17:03.034Z,31.70
2022-08-05T21:19:46.598Z,32.30
2022-08-05T21:22:17.644Z,32.20
2022-08-05T21:24:48.924Z,32.70
2022-08-05T21:27:20.679Z,32.20
2022-08-05T21:29:52.711Z,32.30
2022-08-05T21:32:23.325Z,32.70
2022-08-05T21:35:06.858Z,32.90
2022-08-05T21:37:41.176Z,33.20
2022-08-05T21:40:13.084Z,33.20
2022-08-05T21:42:44.910Z,33.70
2022-08-05T21:45:38.225Z,33.70
2022-08-05T21:48:02.515Z,33.40
2022-08-05T21:50:34.657Z,33.90
2022-08-05T21:53:16.199Z,35.30
2022-08-05T21:56:04.646Z,35.60
2022-08-05T21:58:32.579Z,36.00
2022-08-05T22:01:00.365Z,36.70
2022-08-05T22:03:48.905Z,37.30
2022-08-05T22:06:16.275Z,38.60
2022-08-05T22:08:52.014Z,38.50
2022-08-05T22:11:19.983Z,40.20
2022-08-05T22:14:33.107Z,39.50
2022-08-05T22:17:01.459Z,40.00
2022-08-05T22:20:00.190Z,40.20
2022-08-05T22:22:27.007Z,40.00
2022-08-05T22:25:21.873Z,40.60
2022-08-05T22:28:09.061Z,40.70
2022-08-05T22:30:55.345Z,40.80
2022-08-05T22:33:58.004Z,41.20
2022-08-05T22:36:14.482Z,41.10
2022-08-05T22:38:42.866Z,41.80
2022-08-05T22:41:10.467Z,41.20
2022-08-05T22:43:37.961Z,41.20
2022-08-05T22:46:13.444Z,41.40
2022-08-05T22:48:50.421Z,41.70
2022-08-05T22:51:23.189Z,41.80
2022-08-05T22:53:57.032Z,41.70
2022-08-05T22:56:30.753Z,42.20
2022-08-05T22:59:02.920Z,42.40
2022-08-05T23:02:05.125Z,42.50
2022-08-05T23:04:19.997Z,42.70
2022-08-05T23:06:47.762Z,43.00
2022-08-05T23:09:27.920Z,42.90
2022-08-05T23:12:02.182Z,43.30
2022-08-05T23:14:31.989Z,43.90
2022-08-05T23:17:23.939Z,43.70
2022-08-05T23:19:57.067Z,43.70
2022-08-05T23:22:27.477Z,43.80
2022-08-05T23:24:55.292Z,43.70
2022-08-05T23:27:22.734Z,43.30
2022-08-05T23:29:51.104Z,43.00
2022-08-05T23:32:22.844Z,42.70
2022-08-05T23:34:50.868Z,42.50
2022-08-05T23:37:18.542Z,42.80
2022-08-05T23:39:54.277Z,42.80
2022-08-05T23:42:23.354Z,42.20
2022-08-05T23:44:54.557Z,42.40
2022-08-05T23:47:21.499Z,42.10
2022-08-05T23:49:56.317Z,42.30
2022-08-05T23:52:27.757Z,42.20
2022-08-05T23:55:13.552Z,42.30
2022-08-05T23:57:40.526Z,42.20
